createdAt,value
2022-10-04T00:01:45.453Z,102064.78
2022-10-04T00:04:18.459Z,102075.75
2022-10-04T00:06:54.883Z,102066.97
2022-10-04T00:09:29.450Z,102077.97
2022-10-04T00:11:56.986Z,102072.84
2022-10-04T00:14:37.413Z,102067.50
2022-10-04T00:17:12.359Z,102071.03
2022-10-04T00:19:38.631Z,102071.03
2022-10-04T00:22:08.269Z,102075.28
2022-10-04T00:24:36.812Z,102077.97
2022-10-04T00:27:29.753Z,102080.25
2022-10-04T00:30:02.349Z,102080.53
2022-10-04T00:32:31.831Z,102081.63
2022-10-04T00:34:59.738Z,102072.00
2022-10-04T00:37:27.550Z,102070.41
2022-10-04T00:40:05.968Z,102064.09
2022-10-04T00:42:50.493Z,102063.25
2022-10-04T00:45:19.904Z,102056.31
2022-10-04T00:47:46.181Z,102052.88
2022-10-04T00:50:27.055Z,102048.38
2022-10-04T00:52:57.532Z,102046.09
2022-10-04T00:55:34.554Z,102044.41
2022-10-04T00:58:04.942Z,102051.72
2022-10-04T01:00:35.291Z,102046.47
2022-10-04T01:03:13.276Z,102035.75
2022-10-04T01:05:44.466Z,102042.09
2022-10-04T01:08:14.774Z,102040.38
2022-10-04T01:10:47.442Z,102040.34
2022-10-04T01:13:19.638Z,102046.47
2022-10-04T01:16:11.951Z,102046.47
2022-10-04T01:18:38.467Z,102048.53
2022-10-04T01:21:09.061Z,102034.19
2022-10-04T01:23:46.648Z,102029.81
2022-10-04T01:26:34.497Z,102025.91
2022-10-04T01:29:09.530Z,102033.22
2022-10-04T01:31:43.007Z,102033.34
2022-10-04T01:34:13.843Z,102038.81
2022-10-04T01:36:40.795Z,102030.91
2022-10-04T01:39:07.872Z,102025.81
2022-10-04T01:41:44.621Z,102006.97
2022-10-04T01:44:20.045Z,102018.88
2022-10-04T01:46:47.973Z,102015.47
2022-10-04T01:49:20.002Z,102005.84
2022-10-04T01:52:03.507Z,102007.81
2022-10-04T01:54:43.644Z,102004.28
2022-10-04T01:57:17.693Z,102009.03
2022-10-04T01:59:46.758Z,102008.16
2022-10-04T02:02:24.781Z,101995.06
2022-10-04T02:04:56.025Z,101999.28
2022-10-04T02:07:23.344Z,101993.47
2022-10-04T02:09:56.108Z,101991.41
2022-10-04T02:12:22.777Z,101991.25
2022-10-04T02:14:53.339Z,101979.69
2022-10-04T02:17:28.236Z,101997.22
2022-10-04T02:19:55.498Z,101978.03
2022-10-04T02:22:25.552Z,101982.25
2022-10-04T02:24:54.863Z,101993.34
2022-10-04T02:27:26.832Z,101989.44
2022-10-04T02:30:00.627Z,101998.19
2022-10-04T02:32:48.876Z,101988.19
2022-10-04T02:35:16.310Z,101975.78
2022-10-04T02:37:43.547Z,101965.81
2022-10-04T02:40:14.178Z,101945.38
2022-10-04T02:43:00.336Z,101947.53
2022-10-04T02:46:02.564Z,101952.91
2022-10-04T02:48:37.529Z,101952.91
2022-10-04T02:51:18.151Z,101942.06
2022-10-04T02:54:03.395Z,101953.50
2022-10-04T02:56:31.008Z,101947.41
2022-10-04T02:59:02.242Z,101949.97
2022-10-04T03:01:49.702Z,101937.69
2022-10-04T03:04:21.018Z,101941.34
2022-10-04T03:06:47.583Z,101948.03
2022-10-04T03:09:15.239Z,101949.84
2022-10-04T03:11:46.803Z,101946.06
2022-10-04T03:14:25.468Z,101945.06
2022-10-04T03:16:55.704Z,101935.50
2022-10-04T03:19:23.733Z,101944.06
2022-10-04T03:21:53.017Z,101943.13
2022-10-04T03:24:24.862Z,101946.78
2022-10-04T03:26:56.997Z,101944.50
2022-10-04T03:29:27.493Z,101952.13
2022-10-04T03:31:58.908Z,101928.19
2022-10-04T03:34:32.038Z,101935.09
2022-10-04T03:37:00.880Z,101943.97
2022-10-04T03:39:46.160Z,101935.81
2022-10-04T03:42:15.845Z,101940.31
2022-10-04T03:44:45.449Z,101941.88
2022-10-04T03:47:15.686Z,101940.91
2022-10-04T03:49:46.198Z,101937.34
2022-10-04T03:52:22.240Z,101932.75
2022-10-04T03:54:52.301Z,101936.41
2022-10-04T03:57:19.123Z,101927.53
2022-10-04T03:59:45.775Z,101926.19
2022-10-04T04:02:31.616Z,101926.56
2022-10-04T04:05:20.264Z,101938.84
2022-10-04T04:07:46.562Z,101930.31
2022-10-04T04:10:19.049Z,101933.84
2022-10-04T04:13:01.541Z,101936.41
2022-10-04T04:15:30.530Z,101942.63
2022-10-04T04:18:02.528Z,101931.06
2022-10-04T04:20:34.070Z,101935.44
2022-10-04T04:23:28.810Z,101935.91
2022-10-04T04:25:59.847Z,101935.31
2022-10-04T04:28:28.214Z,101937.00
2022-10-04T04:31:06.344Z,101938.72
2022-10-04T04:33:47.191Z,101939.44
2022-10-04T04:36:15.830Z,101936.75
2022-10-04T04:39:02.087Z,101937.63
2022-10-04T04:41:33.786Z,101940.13
2022-10-04T04:44:00.339Z,101919.38
2022-10-04T04:46:28.974Z,101922.13
2022-10-04T04:49:05.519Z,101919.19
2022-10-04T04:51:33.242Z,101913.94
2022-10-04T04:54:02.703Z,101912.97
2022-10-04T04:56:30.575Z,101916.50
2022-10-04T04:59:02.428Z,101917.47
2022-10-04T05:01:31.589Z,101920.88
2022-10-04T05:04:12.464Z,101919.66
2022-10-04T05:06:44.230Z,101919.31
2022-10-04T05:09:30.684Z,101910.28
2022-10-04T05:12:07.714Z,101926.25
2022-10-04T05:14:38.025Z,101918.22
2022-10-04T05:17:05.559Z,101910.81
2022-10-04T05:19:39.562Z,101916.00
2022-10-04T05:22:11.321Z,101914.56
2022-10-04T05:24:44.920Z,101910.03
2022-10-04T05:27:30.521Z,101906.50
2022-10-04T05:30:30.621Z,101910.34
2022-10-04T05:33:03.124Z,101903.47
2022-10-04T05:35:38.463Z,101900.78
2022-10-04T05:38:17.305Z,101917.28
2022-10-04T05:41:08.067Z,101907.41
2022-10-04T05:43:45.600Z,101902.31
2022-10-04T05:46:23.502Z,101909.25
2022-10-04T05:49:19.203Z,101908.41
2022-10-04T05:51:54.748Z,101916.19
2022-10-04T05:54:26.672Z,101914.22
2022-10-04T05:57:05.185Z,101918.47
2022-10-04T06:00:07.352Z,101922.31
2022-10-04T06:03:04.866Z,101913.31
2022-10-04T06:06:00.358Z,101915.97
2022-10-04T06:08:31.326Z,101917.94
2022-10-04T06:11:29.543Z,101914.16
2022-10-04T06:14:23.455Z,101920.91
2022-10-04T06:17:04.732Z,101930.03
2022-10-04T06:19:41.157Z,101911.38
2022-10-04T06:22:22.772Z,101922.50
2022-10-04T06:25:00.257Z,101918.25
2022-10-04T06:27:30.986Z,101911.50
2022-10-04T06:30:11.785Z,101908.09
2022-10-04T06:33:14.094Z,101915.03
2022-10-04T06:36:11.508Z,101909.91
2022-10-04T06:39:05.019Z,101913.44
2022-10-04T06:41:43.325Z,101914.56
2022-10-04T06:44:12.714Z,101918.81
2022-10-04T06:46:56.799Z,101912.34
2022-10-04T06:49:38.959Z,101910.34
2022-10-04T06:52:27.295Z,101908.16
2022-10-04T06:55:23.143Z,101904.97
2022-10-04T06:58:08.594Z,101912.56
2022-10-04T07:01:11.224Z,101901.22
2022-10-04T07:03:51.182Z,101907.03
2022-10-04T07:06:25.807Z,101909.19
2022-10-04T07:08:59.528Z,101900.38
2022-10-04T07:11:30.210Z,101910.69
2022-10-04T07:14:02.866Z,101913.19
2022-10-04T07:16:39.044Z,101909.41
2022-10-04T07:19:24.145Z,101899.81
2022-10-04T07:22:25.839Z,101910.50
2022-10-04T07:25:30.658Z,101917.03
2022-10-04T07:28:28.001Z,101920.84
2022-10-04T07:31:03.950Z,101923.69
2022-10-04T07:33:34.993Z,101927.38
2022-10-04T07:36:12.466Z,101917.78
2022-10-04T07:38:49.043Z,101928.09
2022-10-04T07:41:37.243Z,101913.03
2022-10-04T07:44:16.028Z,101933.78
2022-10-04T07:46:42.329Z,101923.34
2022-10-04T07:49:17.413Z,101933.22
2022-10-04T07:52:05.402Z,101922.91
2022-10-04T07:54:47.376Z,101925.59
2022-10-04T07:57:27.542Z,101926.59
2022-10-04T08:00:16.693Z,101926.41
2022-10-04T08:02:57.428Z,101925.28
2022-10-04T08:05:37.897Z,101917.78
2022-10-04T08:08:32.263Z,101927.22
2022-10-04T08:11:17.234Z,101924.41
2022-10-04T08:14:26.987Z,101932.28
2022-10-04T08:16:58.188Z,101929.16
2022-10-04T08:19:35.945Z,101913.03
2022-10-04T08:22:04.408Z,101923.88
2022-10-04T08:25:21.773Z,101927.25
2022-10-04T08:28:38.025Z,101921.72
2022-10-04T08:31:26.884Z,101910.81
2022-10-04T08:34:18.154Z,101914.13
2022-10-04T08:37:03.142Z,101916.47
2022-10-04T08:39:54.475Z,101922.13
2022-10-04T08:42:48.680Z,101920.75
2022-10-04T08:45:38.095Z,101928.31
2022-10-04T08:48:22.703Z,101923.97
2022-10-04T08:51:09.533Z,101928.31
2022-10-04T08:53:52.481Z,101920.00
2022-10-04T08:56:40.915Z,101927.56
2022-10-04T08:59:13.371Z,101927.94
2022-10-04T09:02:00.126Z,101928.69
2022-10-04T09:04:41.853Z,101923.69
2022-10-04T09:07:20.581Z,101924.44
2022-10-04T09:10:14.936Z,101928.88
2022-10-04T09:12:56.151Z,101924.00
2022-10-04T09:15:44.795Z,101912.75
2022-10-04T09:18:22.516Z,101916.50
2022-10-04T09:20:58.954Z,101904.84
2022-10-04T09:23:31.469Z,101899.84
2022-10-04T09:26:20.054Z,101902.41
2022-10-04T09:29:04.917Z,101902.41
2022-10-04T09:31:59.459Z,101892.69
2022-10-04T09:34:57.816Z,101897.75
2022-10-04T09:38:02.779Z,101896.09
2022-10-04T09:40:43.269Z,101890.69
2022-10-04T09:43:50.222Z,101900.41
2022-10-04T09:46:56.192Z,101909.00
2022-10-04T09:49:32.583Z,101902.44
2022-10-04T09:52:23.245Z,101912.44
2022-10-04T09:55:24.589Z,101901.81
2022-10-04T09:58:29.543Z,101896.59
2022-10-04T10:01:02.176Z,101904.38
2022-10-04T10:03:50.639Z,101905.25
2022-10-04T10:06:35.758Z,101905.28
2022-10-04T10:09:11.136Z,101909.16
2022-10-04T10:12:08.460Z,101915.59
2022-10-04T10:14:37.823Z,101907.97
2022-10-04T10:17:17.609Z,101906.47
2022-10-04T10:20:00.291Z,101903.28
2022-10-04T10:22:42.480Z,101906.66
2022-10-04T10:25:27.291Z,101897.03
2022-10-04T10:28:15.360Z,101893.19
2022-10-04T10:31:09.655Z,101876.28
2022-10-04T10:34:04.915Z,101871.44
2022-10-04T10:36:40.037Z,101885.06
2022-10-04T10:39:27.367Z,101877.06
2022-10-04T10:42:32.518Z,101881.28
2022-10-04T10:45:21.120Z,101884.59
2022-10-04T10:48:21.681Z,101878.66
2022-10-04T10:51:00.634Z,101864.53
2022-10-04T10:53:51.507Z,101881.16
2022-10-04T10:56:36.657Z,101875.88
2022-10-04T10:59:40.113Z,101874.81
2022-10-04T11:02:48.288Z,101876.41
2022-10-04T11:05:25.839Z,101872.66
2022-10-04T11:08:29.860Z,101876.16
2022-10-04T11:11:44.137Z,101868.75
2022-10-04T11:14:35.055Z,101864.88
2022-10-04T11:17:23.725Z,101867.91
2022-10-04T11:20:15.503Z,101868.50
2022-10-04T11:23:07.262Z,101866.63
2022-10-04T11:25:52.370Z,101860.66
2022-10-04T11:28:40.639Z,101852.78
2022-10-04T11:31:29.119Z,101852.50
2022-10-04T11:34:35.352Z,101852.31
2022-10-04T11:37:08.154Z,101845.44
2022-10-04T11:40:06.480Z,101833.97
2022-10-04T11:42:45.007Z,101834.88
2022-10-04T11:45:38.905Z,101824.63
2022-10-04T11:48:08.014Z,101819.06
2022-10-04T11:50:57.062Z,101810.97
2022-10-04T11:53:48.006Z,101821.69
2022-10-04T11:56:29.727Z,101808.97
2022-10-04T11:59:11.405Z,101826.47
2022-10-04T12:01:59.954Z,101823.56
2022-10-04T12:04:47.502Z,101802.81
2022-10-04T12:07:38.163Z,101804.69
2022-10-04T12:10:13.453Z,101798.00
2022-10-04T12:12:49.802Z,101782.00
2022-10-04T12:15:34.831Z,101794.16
2022-10-04T12:18:07.534Z,101788.81
2022-10-04T12:21:18.633Z,101790.13
2022-10-04T12:23:54.014Z,101790.69
2022-10-04T12:26:49.438Z,101775.00
2022-10-04T12:29:57.174Z,101772.50
2022-10-04T12:32:38.397Z,101774.06
2022-10-04T12:35:32.171Z,101766.31
2022-10-04T12:38:16.709Z,101770.72
2022-10-04T12:40:43.120Z,101762.75
2022-10-04T12:43:09.962Z,101761.53
2022-10-04T12:45:57.100Z,101754.19
2022-10-04T12:48:37.056Z,101751.28
2022-10-04T12:51:18.236Z,101749.63
2022-10-04T12:53:56.709Z,101751.69
2022-10-04T12:56:37.245Z,101755.03
2022-10-04T12:59:15.347Z,101756.88
2022-10-04T13:02:03.784Z,101750.03
2022-10-04T13:04:47.190Z,101737.47
2022-10-04T13:07:28.590Z,101742.75
2022-10-04T13:10:32.833Z,101741.31
2022-10-04T13:13:31.058Z,101753.00
2022-10-04T13:19:21.288Z,101754.00
2022-10-04T13:22:00.408Z,101751.97
2022-10-04T13:24:56.796Z,101743.50
2022-10-04T13:27:28.849Z,101747.47
2022-10-04T13:30:02.273Z,101731.81
2022-10-04T13:32:39.654Z,101730.59
2022-10-04T13:35:13.743Z,101716.97
2022-10-04T13:38:04.739Z,101708.19
2022-10-04T13:40:55.549Z,101704.03
2022-10-04T13:43:33.922Z,101699.00
2022-10-04T13:46:19.943Z,101691.47
2022-10-04T13:49:13.709Z,101690.81
2022-10-04T13:52:19.507Z,101684.31
2022-10-04T13:55:35.534Z,101679.28
2022-10-04T13:58:16.823Z,101680.56
2022-10-04T14:01:17.160Z,101687.69
2022-10-04T14:04:08.166Z,101692.28
2022-10-04T14:06:43.655Z,101690.00
2022-10-04T14:09:45.642Z,101679.56
2022-10-04T14:12:44.836Z,101676.44
2022-10-04T14:15:38.457Z,101661.78
2022-10-04T14:18:35.592Z,101652.97
2022-10-04T14:21:18.962Z,101647.72
2022-10-04T14:24:27.026Z,101641.66
2022-10-04T14:27:30.546Z,101651.75
2022-10-04T14:30:18.503Z,101650.88
2022-10-04T14:33:09.623Z,101653.81
2022-10-04T14:35:54.337Z,101650.81
2022-10-04T14:38:48.245Z,101647.25
2022-10-04T14:41:33.640Z,101646.84
2022-10-04T14:44:14.697Z,101652.47
2022-10-04T14:46:49.965Z,101654.72
2022-10-04T14:49:44.970Z,101662.00
2022-10-04T14:52:38.174Z,101663.03
2022-10-04T14:55:27.037Z,101656.00
2022-10-04T14:58:24.243Z,101660.13
2022-10-04T15:01:32.967Z,101667.38
2022-10-04T15:04:27.257Z,101647.69
2022-10-04T15:07:30.823Z,101652.41
2022-10-04T15:10:19.370Z,101642.53
2022-10-04T15:13:11.854Z,101639.94
2022-10-04T15:16:15.725Z,101636.22
2022-10-04T15:19:00.421Z,101632.69
2022-10-04T15:21:33.696Z,101631.31
2022-10-04T15:24:18.150Z,101631.97
2022-10-04T15:27:18.507Z,101654.09
2022-10-04T15:29:59.773Z,101652.94
2022-10-04T15:32:44.492Z,101652.09
2022-10-04T15:35:46.244Z,101651.44
2022-10-04T15:38:35.578Z,101638.47
2022-10-04T15:41:34.629Z,101631.09
2022-10-04T15:44:15.139Z,101621.59
2022-10-04T15:46:47.946Z,101624.63
2022-10-04T15:49:27.854Z,101608.81
2022-10-04T15:52:12.836Z,101611.13
2022-10-04T15:54:51.938Z,101601.75
2022-10-04T15:57:43.378Z,101601.56
2022-10-04T16:00:10.042Z,101605.81
2022-10-04T16:02:46.715Z,101609.72
2022-10-04T16:05:50.839Z,101604.88
2022-10-04T16:08:56.061Z,101601.19
2022-10-04T16:11:48.114Z,101590.69
2022-10-04T16:14:33.377Z,101592.59
2022-10-04T16:17:02.839Z,101598.09
2022-10-04T16:19:47.978Z,101602.91
2022-10-04T16:22:19.436Z,101596.78
2022-10-04T16:24:51.401Z,101588.94
2022-10-04T16:27:56.121Z,101591.31
2022-10-04T16:31:01.530Z,101589.38
2022-10-04T16:33:44.690Z,101595.00
2022-10-04T16:36:20.436Z,101607.19
2022-10-04T16:39:10.815Z,101598.63
2022-10-04T16:41:54.646Z,101584.63
2022-10-04T16:44:47.878Z,101578.09
2022-10-04T16:47:34.402Z,101586.56
2022-10-04T16:50:04.753Z,101584.88
2022-10-04T16:52:48.236Z,101578.16
2022-10-04T16:55:44.007Z,101588.59
2022-10-04T16:58:30.496Z,101579.66
2022-10-04T17:01:28.738Z,101583.84
2022-10-04T17:04:04.469Z,101578.44
2022-10-04T17:06:53.090Z,101571.50
2022-10-04T17:09:32.952Z,101557.78
2022-10-04T17:12:20.226Z,101563.84
2022-10-04T17:14:58.413Z,101546.69
2022-10-04T17:17:53.474Z,101572.94
2022-10-04T17:20:41.233Z,101580.47
2022-10-04T17:23:42.129Z,101578.69
2022-10-04T17:26:24.042Z,101592.22
2022-10-04T17:29:06.333Z,101587.25
2022-10-04T17:31:51.498Z,101586.66
2022-10-04T17:34:36.149Z,101588.63
2022-10-04T17:37:13.194Z,101591.50
2022-10-04T17:39:44.691Z,101593.59
2022-10-04T17:42:31.051Z,101592.13
2022-10-04T17:45:20.586Z,101597.13
2022-10-04T17:48:49.391Z,101572.06
2022-10-04T17:52:02.432Z,101579.75
2022-10-04T17:55:10.257Z,101582.97
2022-10-04T17:57:51.039Z,101568.03
2022-10-04T18:00:47.614Z,101573.16
2022-10-04T18:03:40.523Z,101586.19
2022-10-04T18:06:38.246Z,101589.63
2022-10-04T18:09:27.530Z,101590.38
2022-10-04T18:12:04.929Z,101593.63
2022-10-04T18:14:37.960Z,101595.91
2022-10-04T18:17:07.957Z,101586.72
2022-10-04T18:19:56.602Z,101586.06
2022-10-04T18:22:26.818Z,101592.41
2022-10-04T18:25:23.403Z,101597.44
2022-10-04T18:28:15.120Z,101595.19
2022-10-04T18:30:54.143Z,101588.28
2022-10-04T18:33:29.784Z,101577.69
2022-10-04T18:36:19.204Z,101554.69
2022-10-04T18:39:01.577Z,101575.69
2022-10-04T18:41:49.197Z,101563.97
2022-10-04T18:44:17.695Z,101557.47
2022-10-04T18:46:48.113Z,101538.81
2022-10-04T18:49:26.959Z,101534.00
2022-10-04T18:52:02.933Z,101531.88
2022-10-04T18:54:58.479Z,101534.09
2022-10-04T18:58:02.262Z,101528.47
2022-10-04T19:01:07.253Z,101549.78
2022-10-04T19:03:47.174Z,101558.41
2022-10-04T19:06:26.444Z,101568.53
2022-10-04T19:09:06.526Z,101572.63
2022-10-04T19:11:47.794Z,101582.78
2022-10-04T19:14:43.693Z,101606.19
2022-10-04T19:17:34.794Z,101627.66
2022-10-04T19:20:21.764Z,101630.19
2022-10-04T19:23:19.710Z,101617.69
2022-10-04T19:26:17.589Z,101602.53
2022-10-04T19:28:38.176Z,101579.75
2022-10-04T19:31:31.773Z,101575.75
2022-10-04T19:34:14.395Z,101573.06
2022-10-04T19:36:55.843Z,101573.06
2022-10-04T19:39:29.991Z,101567.53
2022-10-04T19:42:15.151Z,101571.75
2022-10-04T19:45:02.995Z,101569.06
2022-10-04T19:47:50.119Z,101569.47
2022-10-04T19:50:53.582Z,101564.94
2022-10-04T19:53:35.160Z,101576.00
2022-10-04T19:56:06.889Z,101568.53
2022-10-04T19:58:44.312Z,101580.69
2022-10-04T20:01:12.435Z,101579.97
2022-10-04T20:03:39.714Z,101577.28
2022-10-04T20:06:07.413Z,101579.13
2022-10-04T20:08:53.439Z,101570.22
2022-10-04T20:11:27.115Z,101569.22
2022-10-04T20:14:16.805Z,101570.78
2022-10-04T20:16:46.378Z,101568.53
2022-10-04T20:19:21.466Z,101569.56
2022-10-04T20:21:48.414Z,101565.31
2022-10-04T20:24:41.612Z,101567.88
2022-10-04T20:27:30.248Z,101579.47
2022-10-04T20:29:58.898Z,101579.59
2022-10-04T20:32:34.525Z,101579.47
2022-10-04T20:35:04.176Z,101574.75
2022-10-04T20:38:19.998Z,101560.72
2022-10-04T20:40:45.282Z,101552.94
2022-10-04T20:43:14.829Z,101543.69
2022-10-04T20:45:54.829Z,101549.13
2022-10-04T20:48:24.054Z,101549.97
2022-10-04T20:50:52.197Z,101540.75
2022-10-04T20:53:24.876Z,101545.97
2022-10-04T20:56:07.969Z,101537.91
2022-10-04T20:58:37.881Z,101522.78
2022-10-04T21:01:39.219Z,101520.84
2022-10-04T21:04:31.832Z,101513.88
2022-10-04T21:07:01.185Z,101504.41
2022-10-04T21:09:29.086Z,101513.16
2022-10-04T21:11:57.001Z,101509.63
2022-10-04T21:14:31.261Z,101520.25
2022-10-04T21:17:03.408Z,101524.63
2022-10-04T21:19:30.005Z,101530.50
2022-10-04T21:21:57.196Z,101540.41
2022-10-04T21:24:43.074Z,101537.97
2022-10-04T21:27:35.500Z,101550.72
2022-10-04T21:30:12.528Z,101553.41
2022-10-04T21:32:38.974Z,101552.56
2022-10-04T21:35:06.561Z,101565.16
2022-10-04T21:37:33.303Z,101559.78
2022-10-04T21:39:59.675Z,101557.78
2022-10-04T21:42:26.235Z,101553.41
2022-10-04T21:44:53.097Z,101555.63
2022-10-04T21:47:22.905Z,101557.47
2022-10-04T21:49:53.794Z,101551.66
2022-10-04T21:52:20.240Z,101542.88
2022-10-04T21:54:46.651Z,101540.03
2022-10-04T21:57:13.570Z,101544.56
2022-10-04T21:59:39.973Z,101536.66
2022-10-04T22:02:07.776Z,101538.66
2022-10-04T22:04:34.383Z,101536.81
2022-10-04T22:07:00.898Z,101540.34
2022-10-04T22:09:27.267Z,101540.50
2022-10-04T22:11:53.610Z,101534.97
2022-10-04T22:14:19.987Z,101526.06
2022-10-04T22:16:46.604Z,101530.59
2022-10-04T22:19:13.222Z,101534.66
2022-10-04T22:21:39.662Z,101520.22
2022-10-04T22:24:16.291Z,101521.56
2022-10-04T22:26:42.769Z,101521.72
2022-10-04T22:29:13.513Z,101525.09
2022-10-04T22:31:43.932Z,101516.19
2022-10-04T22:34:19.372Z,101511.97
2022-10-04T22:36:47.371Z,101509.13
2022-10-04T22:39:18.497Z,101506.97
2022-10-04T22:41:56.217Z,101508.34
2022-10-04T22:44:23.892Z,101491.38
2022-10-04T22:46:59.761Z,101485.00
2022-10-04T22:49:30.325Z,101486.31
2022-10-04T22:51:59.021Z,101485.84
2022-10-04T22:54:31.111Z,101496.91
2022-10-04T22:56:58.248Z,101497.06
2022-10-04T22:59:34.404Z,101490.69
2022-10-04T23:02:07.622Z,101482.72
2022-10-04T23:04:34.106Z,101489.63
2022-10-04T23:07:00.648Z,101482.56
2022-10-04T23:09:27.011Z,101482.91
2022-10-04T23:11:53.420Z,101484.59
2022-10-04T23:14:19.819Z,101491.53
2022-10-04T23:16:46.365Z,101484.16
2022-10-04T23:19:18.678Z,101490.59
2022-10-04T23:21:47.302Z,101479.84
2022-10-04T23:24:21.850Z,101480.06
2022-10-04T23:26:56.307Z,101470.34
2022-10-04T23:29:33.433Z,101463.63
2022-10-04T23:32:08.837Z,101469.38
2022-10-04T23:34:41.299Z,101453.78
2022-10-04T23:37:16.344Z,101448.06
2022-10-04T23:39:43.402Z,101453.78
2022-10-04T23:42:18.615Z,101442.69
2022-10-04T23:44:48.028Z,101447.03
2022-10-04T23:47:17.678Z,101451.56
2022-10-04T23:49:45.112Z,101449.06
2022-10-04T23:52:24.995Z,101443.84
2022-10-04T23:54:53.872Z,101426.50
2022-10-04T23:57:24.707Z,101442.00
2022-10-04T23:59:51.246Z,101436.63
